createdAt,value
2018-12-21T00:01:59.068Z,86.70
2018-12-21T00:04:27.499Z,86.80
2018-12-21T00:06:55.931Z,86.80
2018-12-21T00:09:24.412Z,86.70
2018-12-21T00:11:52.843Z,86.40
2018-12-21T00:14:21.288Z,86.20
2018-12-21T00:16:49.739Z,86.10
2018-12-21T00:19:18.181Z,86.40
2018-12-21T00:21:46.632Z,86.30
2018-12-21T00:24:15.307Z,86.50
2018-12-21T00:26:43.833Z,86.60
2018-12-21T00:29:12.310Z,86.60
2018-12-21T00:31:45.980Z,86.70
2018-12-21T00:34:19.899Z,86.60
2018-12-21T00:36:53.776Z,86.30
2018-12-21T00:39:27.428Z,86.40
2018-12-21T00:41:55.142Z,86.20
2018-12-21T00:44:33.687Z,86.20
2018-12-21T00:47:06.643Z,86.30
2018-12-21T00:49:35.079Z,86.40
2018-12-21T00:52:03.589Z,86.60
2018-12-21T00:54:32.007Z,87.00
2018-12-21T00:57:00.467Z,87.10
2018-12-21T00:59:28.884Z,87.00
2018-12-21T01:01:57.421Z,87.00
2018-12-21T01:04:25.992Z,87.10
2018-12-21T01:06:54.551Z,86.90
2018-12-21T01:09:23.139Z,86.70
2018-12-21T01:11:51.580Z,86.70
2018-12-21T01:14:20.039Z,86.80
2018-12-21T01:16:48.460Z,87.00
2018-12-21T01:19:16.897Z,86.90
2018-12-21T01:21:45.418Z,86.70
2018-12-21T01:24:13.867Z,86.50
2018-12-21T01:26:42.315Z,86.70
2018-12-21T01:29:10.775Z,86.80
2018-12-21T01:31:39.231Z,86.80
2018-12-21T01:34:07.728Z,87.20
2018-12-21T01:36:36.190Z,87.40
2018-12-21T01:39:06.672Z,87.70
2018-12-21T01:41:35.143Z,87.70
2018-12-21T01:44:03.608Z,87.60
2018-12-21T01:46:32.051Z,87.50
2018-12-21T01:49:00.468Z,87.50
2018-12-21T01:51:28.930Z,87.50
2018-12-21T01:53:57.343Z,87.30
2018-12-21T01:56:25.821Z,87.00
2018-12-21T01:58:54.239Z,86.60
2018-12-21T02:01:22.779Z,86.90
2018-12-21T02:03:51.224Z,87.10
2018-12-21T02:06:19.663Z,87.40
2018-12-21T02:08:48.155Z,87.50
2018-12-21T02:11:16.570Z,87.50
2018-12-21T02:13:44.999Z,87.30
2018-12-21T02:16:13.535Z,88.00
2018-12-21T02:18:41.940Z,87.10
2018-12-21T02:21:10.421Z,86.80
2018-12-21T02:23:38.945Z,86.50
2018-12-21T02:26:07.371Z,86.30
2018-12-21T02:28:35.868Z,86.10
2018-12-21T02:31:04.298Z,86.30
2018-12-21T02:34:36.205Z,86.50
2018-12-21T02:37:04.770Z,86.80
2018-12-21T02:39:33.229Z,87.10
2018-12-21T02:42:01.678Z,87.20
2018-12-21T02:44:31.168Z,86.90
2018-12-21T02:46:59.591Z,86.80
2018-12-21T02:49:28.029Z,87.10
2018-12-21T02:52:05.344Z,87.00
2018-12-21T02:54:26.992Z,86.70
2018-12-21T02:56:55.449Z,86.70
2018-12-21T02:59:23.866Z,86.60
2018-12-21T03:01:52.318Z,86.70
2018-12-21T03:04:20.803Z,87.80
2018-12-21T03:06:49.264Z,86.80
2018-12-21T03:09:17.815Z,86.90
2018-12-21T03:11:46.279Z,87.00
2018-12-21T03:14:14.759Z,87.20
2018-12-21T03:16:43.207Z,87.10
2018-12-21T03:19:11.855Z,87.30
2018-12-21T03:21:40.395Z,86.80
2018-12-21T03:24:08.864Z,86.80
2018-12-21T03:26:37.324Z,87.40
2018-12-21T03:29:05.747Z,86.60
2018-12-21T03:31:34.337Z,86.50
2018-12-21T03:34:02.758Z,86.40
2018-12-21T03:36:31.331Z,86.60
2018-12-21T03:38:59.873Z,86.60
2018-12-21T03:41:28.470Z,87.20
2018-12-21T03:43:56.954Z,86.70
2018-12-21T03:46:25.452Z,86.60
2018-12-21T03:48:53.919Z,87.60
2018-12-21T03:51:22.710Z,86.90
2018-12-21T03:53:51.291Z,86.80
2018-12-21T03:56:19.784Z,87.10
2018-12-21T03:58:48.242Z,87.40
2018-12-21T04:01:16.681Z,87.20
2018-12-21T04:03:45.125Z,87.00
2018-12-21T04:06:14.311Z,87.20
2018-12-21T04:08:42.720Z,87.30
2018-12-21T04:11:11.321Z,87.10
2018-12-21T04:13:39.798Z,87.10
2018-12-21T04:16:08.368Z,87.00
2018-12-21T04:18:36.832Z,86.70
2018-12-21T04:21:05.295Z,86.50
2018-12-21T04:23:34.747Z,86.40
2018-12-21T04:26:03.275Z,86.00
2018-12-21T04:28:31.752Z,85.80
2018-12-21T04:31:00.208Z,85.70
2018-12-21T04:33:28.660Z,86.30
2018-12-21T04:35:57.113Z,85.50
2018-12-21T04:38:25.523Z,85.50
2018-12-21T04:40:53.986Z,85.30
2018-12-21T04:43:22.437Z,85.10
2018-12-21T04:45:51.000Z,85.10
2018-12-21T04:48:19.632Z,85.00
2018-12-21T04:50:49.192Z,84.70
2018-12-21T04:53:17.618Z,85.40
2018-12-21T04:55:46.104Z,84.80
2018-12-21T04:58:14.524Z,85.10
2018-12-21T05:00:42.985Z,85.40
2018-12-21T05:03:11.472Z,85.90
2018-12-21T05:05:39.932Z,86.30
2018-12-21T05:08:09.511Z,86.30
2018-12-21T05:10:37.952Z,86.60
2018-12-21T05:13:06.455Z,87.40
2018-12-21T05:15:34.883Z,86.60
2018-12-21T05:18:04.226Z,86.50
2018-12-21T05:20:32.707Z,86.70
2018-12-21T05:23:01.192Z,86.80
2018-12-21T05:25:29.712Z,86.90
2018-12-21T05:27:58.153Z,86.80
2018-12-21T05:30:26.593Z,86.30
2018-12-21T05:32:55.048Z,86.10
2018-12-21T05:35:23.468Z,85.90
2018-12-21T05:37:51.950Z,85.40
2018-12-21T05:40:20.375Z,85.60
2018-12-21T05:42:49.736Z,85.50
2018-12-21T05:45:18.181Z,85.50
2018-12-21T05:47:46.702Z,85.80
2018-12-21T05:50:15.203Z,85.70
2018-12-21T05:52:44.743Z,85.70
2018-12-21T05:55:13.212Z,85.60
2018-12-21T05:57:41.626Z,85.40
2018-12-21T06:00:10.858Z,85.70
2018-12-21T06:02:39.315Z,85.60
2018-12-21T06:05:07.949Z,85.70
2018-12-21T06:07:36.378Z,85.60
2018-12-21T06:10:05.547Z,85.80
2018-12-21T06:12:33.987Z,85.20
2018-12-21T06:15:02.594Z,85.40
2018-12-21T06:17:31.027Z,85.40
2018-12-21T06:19:59.488Z,85.30
2018-12-21T06:22:27.911Z,85.40
2018-12-21T06:24:56.415Z,85.50
2018-12-21T06:27:24.863Z,85.50
2018-12-21T06:29:53.312Z,86.00
2018-12-21T06:32:21.727Z,86.00
2018-12-21T06:34:50.212Z,86.20
2018-12-21T06:37:18.653Z,86.00
2018-12-21T06:39:47.083Z,86.00
2018-12-21T06:42:15.645Z,86.00
2018-12-21T06:44:44.065Z,85.80
2018-12-21T06:47:12.523Z,86.00
2018-12-21T06:49:41.070Z,85.90
2018-12-21T06:52:09.551Z,85.60
2018-12-21T06:54:37.984Z,85.50
2018-12-21T06:57:06.580Z,85.40
2018-12-21T07:06:21.984Z,85.50
2018-12-21T07:08:50.415Z,85.60
2018-12-21T07:11:18.866Z,85.50
2018-12-21T07:13:47.319Z,85.40
2018-12-21T07:16:15.783Z,85.40
2018-12-21T07:18:44.229Z,85.60
2018-12-21T07:21:12.690Z,86.00
2018-12-21T07:23:41.115Z,85.60
2018-12-21T07:26:09.590Z,85.80
2018-12-21T07:28:38.159Z,86.00
2018-12-21T07:31:06.626Z,86.20
2018-12-21T07:33:35.089Z,85.90
2018-12-21T07:36:08.346Z,86.20
2018-12-21T07:38:33.979Z,86.10
2018-12-21T07:41:02.599Z,86.10
2018-12-21T07:43:31.027Z,86.20
2018-12-21T07:45:59.660Z,86.10
2018-12-21T07:48:28.099Z,86.00
2018-12-21T07:50:56.583Z,86.10
2018-12-21T07:53:25.005Z,86.00
2018-12-21T07:55:53.439Z,85.90
2018-12-21T07:58:22.023Z,85.70
2018-12-21T08:00:50.462Z,85.90
2018-12-21T08:03:18.919Z,85.90
2018-12-21T08:05:47.355Z,85.90
2018-12-21T08:08:15.819Z,86.00
2018-12-21T08:10:44.239Z,85.90
2018-12-21T08:13:12.646Z,85.90
2018-12-21T08:15:41.127Z,86.10
2018-12-21T08:18:09.559Z,86.20
2018-12-21T08:20:38.111Z,86.10
2018-12-21T08:23:06.619Z,86.10
2018-12-21T08:25:35.143Z,86.10
2018-12-21T08:28:03.731Z,86.00
2018-12-21T08:30:32.189Z,85.70
2018-12-21T08:33:00.627Z,85.80
2018-12-21T08:35:29.147Z,85.90
2018-12-21T08:37:57.616Z,86.00
2018-12-21T08:40:26.302Z,85.90
2018-12-21T08:42:54.778Z,85.80
2018-12-21T08:45:23.219Z,86.10
2018-12-21T08:47:51.695Z,86.30
2018-12-21T08:50:20.111Z,86.70
2018-12-21T08:52:48.539Z,86.70
2018-12-21T08:55:17.015Z,86.70
2018-12-21T08:57:45.463Z,86.50
2018-12-21T09:00:13.886Z,86.50
2018-12-21T09:02:42.463Z,86.10
2018-12-21T09:05:10.911Z,85.90
2018-12-21T09:07:39.374Z,85.60
2018-12-21T09:10:09.967Z,85.80
2018-12-21T09:12:38.804Z,85.70
2018-12-21T09:15:10.600Z,85.90
2018-12-21T09:17:39.092Z,85.60
2018-12-21T09:20:09.247Z,85.30
2018-12-21T09:22:37.659Z,85.40
2018-12-21T09:25:06.340Z,85.50
2018-12-21T09:27:34.755Z,85.60
2018-12-21T09:30:03.859Z,85.30
2018-12-21T09:32:32.275Z,85.20
2018-12-21T09:35:00.700Z,85.40
2018-12-21T09:37:29.152Z,85.20
2018-12-21T09:39:57.624Z,85.10
2018-12-21T09:42:26.171Z,84.80
2018-12-21T09:44:54.615Z,84.50
2018-12-21T09:47:23.067Z,84.40
2018-12-21T09:49:51.496Z,84.30
2018-12-21T09:52:20.185Z,84.50
2018-12-21T09:54:48.596Z,84.30
2018-12-21T09:57:17.146Z,84.40
2018-12-21T09:59:45.584Z,84.00
2018-12-21T10:02:15.115Z,84.00
2018-12-21T10:04:43.598Z,83.80
2018-12-21T10:07:12.042Z,84.00
2018-12-21T10:09:40.689Z,84.00
2018-12-21T10:12:09.110Z,83.80
2018-12-21T10:14:37.580Z,83.40
2018-12-21T10:17:06.160Z,83.80
2018-12-21T10:19:34.617Z,83.90
2018-12-21T10:22:03.106Z,83.70
2018-12-21T10:24:31.556Z,83.90
2018-12-21T10:27:00.023Z,84.40
2018-12-21T10:29:28.486Z,84.80
2018-12-21T10:31:56.960Z,84.70
2018-12-21T10:34:25.445Z,84.50
2018-12-21T10:36:53.988Z,84.40
2018-12-21T10:39:22.503Z,84.60
2018-12-21T10:41:51.044Z,84.20
2018-12-21T10:44:19.581Z,84.10
2018-12-21T10:46:48.014Z,83.80
2018-12-21T10:49:16.479Z,84.00
2018-12-21T10:51:44.912Z,83.80
2018-12-21T10:54:13.406Z,83.70
2018-12-21T10:56:41.819Z,84.00
2018-12-21T10:59:10.255Z,84.10
2018-12-21T11:01:38.722Z,84.20
2018-12-21T11:04:07.146Z,84.20
2018-12-21T11:06:35.555Z,84.20
2018-12-21T11:09:05.619Z,84.20
2018-12-21T11:11:34.047Z,84.30
2018-12-21T11:14:02.511Z,84.50
2018-12-21T11:16:30.931Z,84.50
2018-12-21T11:18:59.439Z,84.70
2018-12-21T11:21:27.964Z,84.50
2018-12-21T11:23:56.411Z,84.70
2018-12-21T11:26:24.857Z,84.40
2018-12-21T11:28:54.312Z,84.40
2018-12-21T11:31:22.721Z,84.30
2018-12-21T11:33:51.171Z,84.40
2018-12-21T11:36:19.585Z,84.10
2018-12-21T11:38:48.050Z,84.50
2018-12-21T11:41:16.491Z,84.40
2018-12-21T11:43:45.007Z,84.30
2018-12-21T11:46:13.424Z,84.40
2018-12-21T11:48:41.841Z,84.50
2018-12-21T11:51:10.287Z,84.50
2018-12-21T11:53:38.696Z,84.60
2018-12-21T11:56:07.152Z,84.70
2018-12-21T11:58:35.643Z,84.40
2018-12-21T12:01:04.195Z,84.50
2018-12-21T12:03:32.647Z,84.80
2018-12-21T12:06:01.103Z,84.80
2018-12-21T12:08:29.732Z,84.90
2018-12-21T12:10:58.143Z,84.90
2018-12-21T12:13:26.632Z,85.10
2018-12-21T12:15:55.143Z,85.00
2018-12-21T12:18:23.652Z,84.90
2018-12-21T12:20:52.199Z,85.00
2018-12-21T12:23:20.652Z,85.10
2018-12-21T12:25:49.116Z,85.10
2018-12-21T12:28:17.544Z,84.90
2018-12-21T12:30:46.047Z,85.70
2018-12-21T12:33:14.507Z,85.90
2018-12-21T12:35:42.964Z,85.90
2018-12-21T12:38:11.424Z,86.10
2018-12-21T12:40:39.864Z,86.20
2018-12-21T12:43:08.534Z,86.30
2018-12-21T12:45:37.551Z,86.20
2018-12-21T12:48:06.031Z,86.00
2018-12-21T12:50:34.484Z,86.20
2018-12-21T12:53:02.945Z,86.10
2018-12-21T12:55:31.375Z,86.00
2018-12-21T12:57:59.822Z,86.50
2018-12-21T13:00:28.238Z,86.40
2018-12-21T13:02:56.711Z,86.20
2018-12-21T13:05:25.427Z,86.50
2018-12-21T13:07:53.855Z,86.70
2018-12-21T13:10:22.336Z,86.40
2018-12-21T13:12:50.743Z,85.90
2018-12-21T13:15:19.246Z,86.00
2018-12-21T13:17:47.659Z,86.00
2018-12-21T13:20:16.151Z,86.00
2018-12-21T13:22:44.591Z,86.10
2018-12-21T13:25:13.153Z,86.10
2018-12-21T13:27:41.619Z,85.90
2018-12-21T13:30:12.026Z,86.00
2018-12-21T13:32:41.147Z,85.90
2018-12-21T13:35:09.588Z,86.30
2018-12-21T13:37:38.133Z,86.40
2018-12-21T13:40:12.661Z,86.20
2018-12-21T13:42:41.131Z,86.20
2018-12-21T13:45:10.923Z,86.00
2018-12-21T13:47:39.347Z,86.20
2018-12-21T13:50:11.579Z,86.30
2018-12-21T13:52:40.121Z,86.30
2018-12-21T13:55:09.287Z,86.40
2018-12-21T13:57:37.719Z,86.20
2018-12-21T14:00:08.284Z,86.10
2018-12-21T14:02:36.831Z,86.20
2018-12-21T14:05:06.420Z,86.30
2018-12-21T14:07:34.879Z,86.50
2018-12-21T14:10:04.119Z,86.40
2018-12-21T14:12:32.612Z,86.70
2018-12-21T14:15:01.016Z,86.80
2018-12-21T14:17:29.488Z,86.90
2018-12-21T14:19:57.923Z,86.90
2018-12-21T14:22:26.406Z,87.00
2018-12-21T14:24:54.862Z,87.20
2018-12-21T14:27:23.277Z,87.40
2018-12-21T14:29:51.688Z,87.40
2018-12-21T14:32:20.143Z,87.40
2018-12-21T14:34:48.651Z,87.30
2018-12-21T14:37:17.184Z,87.60
2018-12-21T14:39:45.646Z,87.80
2018-12-21T14:42:14.803Z,87.80
2018-12-21T14:44:43.242Z,87.60
2018-12-21T14:47:11.660Z,87.70
2018-12-21T14:49:40.137Z,87.70
2018-12-21T14:52:08.591Z,87.50
2018-12-21T14:54:37.027Z,87.60
2018-12-21T14:57:05.475Z,87.70
2018-12-21T14:59:33.968Z,87.70
2018-12-21T15:02:02.469Z,87.50
2018-12-21T15:04:30.879Z,87.50
2018-12-21T15:06:59.331Z,87.50
2018-12-21T15:09:27.763Z,87.50
2018-12-21T15:11:56.381Z,87.70
2018-12-21T15:14:24.839Z,87.70
2018-12-21T15:16:53.375Z,87.50
2018-12-21T15:19:21.811Z,87.30
2018-12-21T15:21:50.275Z,87.50
2018-12-21T15:24:18.961Z,87.50
2018-12-21T15:26:47.442Z,87.60
2018-12-21T15:29:15.904Z,88.00
2018-12-21T15:31:44.328Z,88.00
2018-12-21T15:34:12.812Z,88.00
2018-12-21T15:36:41.274Z,88.10
2018-12-21T15:39:09.694Z,88.30
2018-12-21T15:41:38.139Z,88.20
2018-12-21T15:44:06.741Z,88.00
2018-12-21T15:46:35.949Z,88.00
2018-12-21T15:49:04.544Z,87.90
2018-12-21T15:51:33.025Z,88.00
2018-12-21T15:54:01.505Z,87.90
2018-12-21T15:56:29.977Z,87.90
2018-12-21T15:58:58.442Z,88.20
2018-12-21T16:01:26.951Z,88.20
2018-12-21T16:03:55.391Z,88.20
2018-12-21T16:06:23.848Z,88.20
2018-12-21T16:08:52.311Z,88.90
2018-12-21T16:11:20.731Z,88.30
2018-12-21T16:13:49.188Z,88.30
2018-12-21T16:16:17.627Z,88.70
2018-12-21T16:18:46.155Z,88.60
2018-12-21T16:21:14.639Z,88.60
2018-12-21T16:23:43.071Z,88.60
2018-12-21T16:26:11.498Z,88.70
2018-12-21T16:28:42.046Z,87.80
2018-12-21T16:31:10.425Z,88.10
2018-12-21T16:33:38.882Z,87.90
2018-12-21T16:36:07.291Z,87.80
2018-12-21T16:38:35.719Z,87.20
2018-12-21T16:41:04.201Z,88.20
2018-12-21T16:43:32.658Z,87.90
2018-12-21T16:46:01.107Z,87.90
2018-12-21T16:48:29.556Z,87.90
2018-12-21T16:50:58.041Z,88.80
2018-12-21T16:53:26.450Z,88.10
2018-12-21T16:55:54.924Z,88.20
2018-12-21T16:58:23.351Z,88.50
2018-12-21T17:00:51.790Z,88.20
2018-12-21T17:03:20.291Z,88.00
2018-12-21T17:05:48.782Z,88.00
2018-12-21T17:08:17.221Z,88.00
2018-12-21T17:10:46.195Z,88.20
2018-12-21T17:13:14.675Z,88.10
2018-12-21T17:15:43.367Z,88.30
2018-12-21T17:18:11.835Z,88.40
2018-12-21T17:20:40.255Z,88.40
2018-12-21T17:23:08.729Z,88.60
2018-12-21T17:25:37.188Z,88.90
2018-12-21T17:28:05.644Z,88.70
2018-12-21T17:30:34.059Z,88.70
2018-12-21T17:33:02.521Z,88.70
2018-12-21T17:35:30.979Z,88.80
2018-12-21T17:37:59.395Z,88.60
2018-12-21T17:40:27.839Z,88.80
2018-12-21T17:42:56.267Z,88.80
2018-12-21T17:45:24.739Z,88.90
2018-12-21T17:47:53.287Z,88.30
2018-12-21T17:50:21.741Z,88.50
2018-12-21T17:52:50.175Z,89.40
2018-12-21T17:55:18.659Z,88.80
2018-12-21T17:57:47.083Z,88.80
2018-12-21T18:00:19.751Z,88.80
2018-12-21T18:02:51.875Z,88.90
2018-12-21T18:05:20.915Z,89.00
2018-12-21T18:07:49.356Z,88.90
2018-12-21T18:10:17.796Z,89.00
2018-12-21T18:12:46.223Z,88.70
2018-12-21T18:15:14.715Z,88.50
2018-12-21T18:17:43.142Z,89.40
2018-12-21T18:20:12.924Z,88.90
2018-12-21T18:22:42.145Z,88.70
2018-12-21T18:25:15.793Z,89.70
2018-12-21T18:27:46.775Z,89.00
2018-12-21T18:30:24.116Z,88.90
2018-12-21T18:32:52.572Z,88.80
2018-12-21T18:35:21.016Z,88.80
2018-12-21T18:38:01.004Z,88.70
2018-12-21T18:40:30.410Z,88.80
2018-12-21T18:42:59.035Z,88.70
2018-12-21T18:45:27.527Z,88.80
2018-12-21T18:47:55.958Z,89.30
2018-12-21T18:50:25.630Z,89.10
2018-12-21T18:52:54.111Z,89.10
2018-12-21T18:55:22.544Z,89.70
2018-12-21T18:57:51.003Z,90.00
2018-12-21T19:00:19.447Z,89.20
2018-12-21T19:02:47.900Z,89.40
2018-12-21T19:05:16.389Z,89.30
2018-12-21T19:07:44.819Z,89.40
2018-12-21T19:10:13.276Z,89.10
2018-12-21T19:12:41.685Z,89.40
2018-12-21T19:15:11.332Z,89.30
2018-12-21T19:17:40.123Z,89.20
2018-12-21T19:20:12.484Z,89.30
2018-12-21T19:22:40.998Z,89.40
2018-12-21T19:25:10.991Z,89.60
2018-12-21T19:27:39.447Z,89.40
2018-12-21T19:30:10.437Z,89.20
2018-12-21T19:32:40.323Z,89.30
2018-12-21T19:35:09.752Z,89.50
2018-12-21T19:37:38.235Z,89.40
2018-12-21T19:40:08.586Z,90.10
2018-12-21T19:42:37.103Z,89.50
2018-12-21T19:45:07.503Z,89.50
2018-12-21T19:47:35.959Z,89.60
2018-12-21T19:50:05.148Z,89.70
2018-12-21T19:52:33.607Z,89.40
2018-12-21T19:55:09.969Z,89.40
2018-12-21T19:57:38.407Z,89.40
2018-12-21T20:00:07.797Z,89.40
2018-12-21T20:02:36.223Z,89.40
2018-12-21T20:05:05.210Z,89.40
2018-12-21T20:07:33.744Z,89.30
2018-12-21T20:10:02.199Z,89.30
2018-12-21T20:12:30.729Z,89.30
2018-12-21T20:14:59.243Z,89.20
2018-12-21T20:17:27.717Z,89.30
2018-12-21T20:19:56.155Z,89.40
2018-12-21T20:22:24.608Z,89.50
2018-12-21T20:24:53.037Z,89.30
2018-12-21T20:27:21.482Z,89.10
2018-12-21T20:29:49.895Z,89.20
2018-12-21T20:32:18.339Z,89.60
2018-12-21T20:34:46.907Z,90.00
2018-12-21T20:37:15.420Z,90.50
2018-12-21T20:39:46.149Z,90.10
2018-12-21T20:42:14.592Z,92.10
2018-12-21T20:44:43.043Z,99.90
2018-12-21T20:47:11.663Z,99.90
2018-12-21T20:49:40.270Z,99.90
2018-12-21T20:52:08.689Z,99.90
2018-12-21T20:54:37.103Z,99.30
2018-12-21T20:57:07.971Z,97.80
2018-12-21T20:59:36.688Z,96.60
2018-12-21T21:02:05.145Z,95.70
2018-12-21T21:04:33.557Z,95.30
2018-12-21T21:07:02.007Z,95.20
2018-12-21T21:09:30.434Z,94.90
2018-12-21T21:11:58.881Z,94.60
2018-12-21T21:14:27.305Z,94.50
2018-12-21T21:16:55.739Z,92.20
2018-12-21T21:19:25.819Z,91.60
2018-12-21T21:21:54.269Z,91.00
2018-12-21T21:24:22.771Z,90.90
2018-12-21T21:26:51.287Z,90.30
2018-12-21T21:29:19.896Z,91.20
2018-12-21T21:31:48.760Z,90.70
2018-12-21T21:34:17.352Z,91.00
2018-12-21T21:36:45.755Z,91.80
2018-12-21T21:39:14.205Z,92.00
2018-12-21T21:41:42.627Z,92.10
2018-12-21T21:44:11.319Z,92.30
2018-12-21T21:46:39.793Z,92.30
2018-12-21T21:49:08.239Z,92.50
2018-12-21T21:51:36.828Z,92.60
2018-12-21T21:54:05.341Z,92.60
2018-12-21T21:56:33.815Z,92.60
2018-12-21T21:59:02.248Z,92.60
2018-12-21T22:01:30.666Z,92.60
2018-12-21T22:03:59.107Z,92.70
2018-12-21T22:06:27.626Z,92.70
2018-12-21T22:08:56.085Z,97.60
2018-12-21T22:11:24.547Z,98.50
2018-12-21T22:13:53.014Z,96.30
2018-12-21T22:16:21.424Z,92.90
2018-12-21T22:18:49.994Z,91.10
2018-12-21T22:21:18.402Z,90.20
2018-12-21T22:23:46.856Z,88.50
2018-12-21T22:26:15.264Z,87.20
2018-12-21T22:28:43.735Z,86.40
2018-12-21T22:31:12.151Z,85.90
2018-12-21T22:33:40.599Z,86.20
2018-12-21T22:36:09.000Z,86.20
2018-12-21T22:38:37.429Z,86.60
2018-12-21T22:41:05.887Z,86.30
2018-12-21T22:43:34.327Z,86.40
2018-12-21T22:46:02.791Z,86.20
2018-12-21T22:48:31.227Z,86.30
2018-12-21T22:50:59.643Z,86.00
2018-12-21T22:53:28.060Z,86.10
2018-12-21T22:55:56.516Z,85.60
2018-12-21T22:58:24.952Z,85.50
2018-12-21T23:00:53.801Z,85.50
2018-12-21T23:03:22.263Z,85.60
2018-12-21T23:05:50.715Z,86.00
2018-12-21T23:08:19.151Z,85.90
2018-12-21T23:10:47.567Z,86.50
2018-12-21T23:13:16.024Z,86.00
2018-12-21T23:15:44.427Z,85.50
2018-12-21T23:18:12.888Z,85.60
2018-12-21T23:20:41.296Z,85.40
2018-12-21T23:23:09.763Z,85.20
2018-12-21T23:25:38.193Z,85.40
2018-12-21T23:28:06.627Z,84.50
2018-12-21T23:30:35.070Z,84.30
2018-12-21T23:33:03.512Z,85.10
2018-12-21T23:35:32.011Z,84.70
2018-12-21T23:38:00.463Z,85.10
2018-12-21T23:40:28.978Z,84.20
2018-12-21T23:42:58.050Z,85.10
2018-12-21T23:45:26.471Z,85.20
2018-12-21T23:47:54.943Z,84.90
2018-12-21T23:50:24.426Z,84.90
2018-12-21T23:52:52.830Z,85.00
2018-12-21T23:55:21.240Z,84.70
2018-12-21T23:57:49.700Z,84.70
